sensor_id;sensor_type;location;lat;lon;timestamp;pressure;altitude;pressure_sealevel;temperature;humidity
41312;BME280;27061;41.648;24.568;2022-11-13T00:01:24;87047.78;;;7.40;75.67
41312;BME280;27061;41.648;24.568;2022-11-13T00:04:10;87062.84;;;7.34;75.72
41312;BME280;27061;41.648;24.568;2022-11-13T00:06:56;87014.06;;;7.03;76.17
41312;BME280;27061;41.648;24.568;2022-11-13T00:09:43;87033.63;;;7.17;76.11
41312;BME280;27061;41.648;24.568;2022-11-13T00:12:29;87040.53;;;7.18;76.45
41312;BME280;27061;41.648;24.568;2022-11-13T00:15:15;87029.31;;;7.08;76.38
41312;BME280;27061;41.648;24.568;2022-11-13T00:18:01;87054.50;;;7.30;76.57
41312;BME280;27061;41.648;24.568;2022-11-13T00:20:47;87025.22;;;7.11;75.81
41312;BME280;27061;41.648;24.568;2022-11-13T00:23:34;87032.84;;;7.13;76.30
41312;BME280;27061;41.648;24.568;2022-11-13T00:26:22;87052.47;;;7.33;75.20
41312;BME280;27061;41.648;24.568;2022-11-13T00:29:08;87052.50;;;7.35;75.45
41312;BME280;27061;41.648;24.568;2022-11-13T00:31:54;87044.84;;;7.29;75.54
41312;BME280;27061;41.648;24.568;2022-11-13T00:34:40;87019.81;;;7.15;75.48
41312;BME280;27061;41.648;24.568;2022-11-13T00:37:32;87027.63;;;7.29;74.04
41312;BME280;27061;41.648;24.568;2022-11-13T00:40:18;87037.25;;;7.28;73.56
41312;BME280;27061;41.648;24.568;2022-11-13T00:43:04;87052.94;;;7.19;72.00
41312;BME280;27061;41.648;24.568;2022-11-13T00:45:50;87015.38;;;6.98;72.05
41312;BME280;27061;41.648;24.568;2022-11-13T00:48:35;87049.06;;;7.34;70.83
41312;BME280;27061;41.648;24.568;2022-11-13T00:51:21;87049.72;;;7.33;71.10
41312;BME280;27061;41.648;24.568;2022-11-13T00:54:07;87009.59;;;6.84;71.11
41312;BME280;27061;41.648;24.568;2022-11-13T00:56:52;87035.72;;;7.21;71.07
41312;BME280;27061;41.648;24.568;2022-11-13T00:59:38;87041.63;;;7.03;71.53
41312;BME280;27061;41.648;24.568;2022-11-13T01:02:23;87021.97;;;6.83;72.27
41312;BME280;27061;41.648;24.568;2022-11-13T01:05:09;87012.47;;;6.90;72.36
41312;BME280;27061;41.648;24.568;2022-11-13T01:07:55;87031.84;;;6.96;72.69
41312;BME280;27061;41.648;24.568;2022-11-13T01:10:46;87038.81;;;7.01;72.31
41312;BME280;27061;41.648;24.568;2022-11-13T01:13:39;87033.78;;;6.89;73.19
41312;BME280;27061;41.648;24.568;2022-11-13T01:16:26;87033.81;;;6.91;73.10
41312;BME280;27061;41.648;24.568;2022-11-13T01:19:12;87023.38;;;6.84;73.32
41312;BME280;27061;41.648;24.568;2022-11-13T01:21:58;87005.41;;;6.81;73.41
41312;BME280;27061;41.648;24.568;2022-11-13T01:24:44;87028.44;;;6.97;73.06
41312;BME280;27061;41.648;24.568;2022-11-13T01:27:30;86976.13;;;6.59;73.00
41312;BME280;27061;41.648;24.568;2022-11-13T01:30:15;87033.28;;;6.99;72.73
41312;BME280;27061;41.648;24.568;2022-11-13T01:33:01;87019.81;;;6.77;73.27
41312;BME280;27061;41.648;24.568;2022-11-13T01:35:46;87025.06;;;7.01;72.34
41312;BME280;27061;41.648;24.568;2022-11-13T01:38:32;87031.72;;;6.88;72.83
41312;BME280;27061;41.648;24.568;2022-11-13T01:41:22;87007.38;;;6.74;73.02
41312;BME280;27061;41.648;24.568;2022-11-13T01:44:12;86995.47;;;6.64;73.05
41312;BME280;27061;41.648;24.568;2022-11-13T01:46:57;87027.56;;;6.87;73.35
41312;BME280;27061;41.648;24.568;2022-11-13T01:49:44;86978.06;;;6.53;72.38
41312;BME280;27061;41.648;24.568;2022-11-13T01:52:32;87028.53;;;6.66;73.14
41312;BME280;27061;41.648;24.568;2022-11-13T01:55:20;86989.63;;;6.47;72.97
41312;BME280;27061;41.648;24.568;2022-11-13T01:58:07;86999.44;;;6.54;72.28
41312;BME280;27061;41.648;24.568;2022-11-13T02:00:54;86982.06;;;6.46;71.61
41312;BME280;27061;41.648;24.568;2022-11-13T02:03:40;87024.03;;;6.82;72.60
41312;BME280;27061;41.648;24.568;2022-11-13T02:06:29;86978.56;;;6.43;72.70
41312;BME280;27061;41.648;24.568;2022-11-13T02:09:21;87027.38;;;6.77;72.67
41312;BME280;27061;41.648;24.568;2022-11-13T02:12:14;87027.38;;;6.77;72.73
41312;BME280;27061;41.648;24.568;2022-11-13T02:15:03;87030.00;;;6.71;72.76
41312;BME280;27061;41.648;24.568;2022-11-13T02:17:53;87023.56;;;6.94;72.28
41312;BME280;27061;41.648;24.568;2022-11-13T02:20:46;87022.06;;;6.89;72.59
41312;BME280;27061;41.648;24.568;2022-11-13T02:23:37;87024.81;;;6.87;73.01
41312;BME280;27061;41.648;24.568;2022-11-13T02:26:26;87023.25;;;6.42;73.21
41312;BME280;27061;41.648;24.568;2022-11-13T02:29:14;86989.50;;;6.39;72.96
41312;BME280;27061;41.648;24.568;2022-11-13T02:31:59;87009.28;;;6.66;72.35
41312;BME280;27061;41.648;24.568;2022-11-13T02:34:45;86979.00;;;6.30;72.41
41312;BME280;27061;41.648;24.568;2022-11-13T02:37:30;87015.94;;;6.54;72.68
41312;BME280;27061;41.648;24.568;2022-11-13T02:40:17;87012.03;;;6.68;72.01
41312;BME280;27061;41.648;24.568;2022-11-13T02:43:02;87000.94;;;6.61;72.23
41312;BME280;27061;41.648;24.568;2022-11-13T02:45:48;86960.53;;;6.36;72.24
41312;BME280;27061;41.648;24.568;2022-11-13T02:48:33;86991.38;;;6.65;71.53
41312;BME280;27061;41.648;24.568;2022-11-13T02:51:18;87013.72;;;6.83;71.69
41312;BME280;27061;41.648;24.568;2022-11-13T02:54:04;87001.00;;;6.66;71.71
41312;BME280;27061;41.648;24.568;2022-11-13T02:56:50;87003.72;;;6.64;71.50
41312;BME280;27061;41.648;24.568;2022-11-13T02:59:36;86993.09;;;6.48;71.45
41312;BME280;27061;41.648;24.568;2022-11-13T03:02:21;87021.75;;;6.71;70.81
41312;BME280;27061;41.648;24.568;2022-11-13T03:05:07;87020.28;;;6.68;70.47
41312;BME280;27061;41.648;24.568;2022-11-13T03:07:58;87000.84;;;6.57;71.16
41312;BME280;27061;41.648;24.568;2022-11-13T03:10:43;87025.97;;;6.76;71.29
41312;BME280;27061;41.648;24.568;2022-11-13T03:13:29;86981.97;;;6.42;71.46
41312;BME280;27061;41.648;24.568;2022-11-13T03:16:16;87012.16;;;6.74;71.11
41312;BME280;27061;41.648;24.568;2022-11-13T03:19:02;86995.28;;;6.53;71.19
41312;BME280;27061;41.648;24.568;2022-11-13T03:21:48;87023.19;;;6.74;71.10
41312;BME280;27061;41.648;24.568;2022-11-13T03:24:33;87016.41;;;6.81;70.54
41312;BME280;27061;41.648;24.568;2022-11-13T03:27:19;87015.56;;;6.72;70.48
41312;BME280;27061;41.648;24.568;2022-11-13T03:30:05;86986.81;;;6.43;70.44
41312;BME280;27061;41.648;24.568;2022-11-13T03:32:53;87014.66;;;6.59;70.19
41312;BME280;27061;41.648;24.568;2022-11-13T03:35:39;87039.09;;;6.77;70.16
41312;BME280;27061;41.648;24.568;2022-11-13T03:38:31;87036.81;;;6.68;70.17
41312;BME280;27061;41.648;24.568;2022-11-13T03:41:16;87031.38;;;6.72;70.32
41312;BME280;27061;41.648;24.568;2022-11-13T03:44:02;87043.72;;;6.69;69.35
41312;BME280;27061;41.648;24.568;2022-11-13T03:46:47;87006.16;;;6.47;68.48
41312;BME280;27061;41.648;24.568;2022-11-13T03:49:33;87020.94;;;6.64;68.64
41312;BME280;27061;41.648;24.568;2022-11-13T03:52:18;87037.44;;;6.64;68.49
41312;BME280;27061;41.648;24.568;2022-11-13T03:55:04;87038.88;;;6.67;69.00
41312;BME280;27061;41.648;24.568;2022-11-13T03:57:50;87015.81;;;6.48;69.11
41312;BME280;27061;41.648;24.568;2022-11-13T04:00:36;87015.09;;;6.48;68.88
41312;BME280;27061;41.648;24.568;2022-11-13T04:03:23;87034.75;;;6.68;68.34
41312;BME280;27061;41.648;24.568;2022-11-13T04:06:08;87040.97;;;6.69;67.98
41312;BME280;27061;41.648;24.568;2022-11-13T04:08:54;87030.78;;;6.41;68.35
41312;BME280;27061;41.648;24.568;2022-11-13T04:11:40;87019.25;;;6.15;68.42
41312;BME280;27061;41.648;24.568;2022-11-13T04:14:25;87040.44;;;6.42;68.59
41312;BME280;27061;41.648;24.568;2022-11-13T04:17:11;87021.69;;;6.33;68.17
41312;BME280;27061;41.648;24.568;2022-11-13T04:19:56;87047.19;;;6.35;68.62
41312;BME280;27061;41.648;24.568;2022-11-13T04:22:42;87049.50;;;6.49;68.56
41312;BME280;27061;41.648;24.568;2022-11-13T04:25:27;87040.34;;;6.38;68.69
41312;BME280;27061;41.648;24.568;2022-11-13T04:28:13;87048.69;;;6.42;67.95
41312;BME280;27061;41.648;24.568;2022-11-13T04:30:58;87037.94;;;6.20;68.88
41312;BME280;27061;41.648;24.568;2022-11-13T04:33:44;87051.19;;;6.30;69.09
41312;BME280;27061;41.648;24.568;2022-11-13T04:36:30;87044.13;;;6.21;68.85
41312;BME280;27061;41.648;24.568;2022-11-13T04:39:15;87043.47;;;6.22;68.85
41312;BME280;27061;41.648;24.568;2022-11-13T04:42:01;87018.38;;;6.06;68.56
41312;BME280;27061;41.648;24.568;2022-11-13T04:45:05;87042.31;;;6.00;68.23
41312;BME280;27061;41.648;24.568;2022-11-13T04:47:51;86995.00;;;5.75;68.64
41312;BME280;27061;41.648;24.568;2022-11-13T04:50:36;87054.38;;;6.18;68.42
41312;BME280;27061;41.648;24.568;2022-11-13T04:53:22;87048.75;;;6.12;68.18
41312;BME280;27061;41.648;24.568;2022-11-13T04:56:07;87014.41;;;5.83;68.09
41312;BME280;27061;41.648;24.568;2022-11-13T04:58:53;87052.25;;;6.15;68.48
41312;BME280;27061;41.648;24.568;2022-11-13T05:01:38;87011.50;;;5.75;68.55
41312;BME280;27061;41.648;24.568;2022-11-13T05:04:24;87057.63;;;6.09;68.63
41312;BME280;27061;41.648;24.568;2022-11-13T05:07:10;87061.81;;;6.12;67.85
41312;BME280;27061;41.648;24.568;2022-11-13T05:09:55;87064.41;;;6.04;68.24
41312;BME280;27061;41.648;24.568;2022-11-13T05:12:41;87061.50;;;5.98;68.74
41312;BME280;27061;41.648;24.568;2022-11-13T05:15:26;87056.09;;;6.02;68.66
41312;BME280;27061;41.648;24.568;2022-11-13T05:18:12;87064.28;;;6.00;68.57
41312;BME280;27061;41.648;24.568;2022-11-13T05:20:58;87050.81;;;5.82;68.92
41312;BME280;27061;41.648;24.568;2022-11-13T05:23:43;87065.53;;;5.95;69.25
41312;BME280;27061;41.648;24.568;2022-11-13T05:26:29;87062.72;;;5.91;67.92
41312;BME280;27061;41.648;24.568;2022-11-13T05:29:15;87065.41;;;5.88;68.57
41312;BME280;27061;41.648;24.568;2022-11-13T05:32:01;87066.81;;;5.90;68.87
41312;BME280;27061;41.648;24.568;2022-11-13T05:34:46;87054.00;;;6.00;67.59
41312;BME280;27061;41.648;24.568;2022-11-13T05:37:32;87050.03;;;5.77;68.10
41312;BME280;27061;41.648;24.568;2022-11-13T05:40:17;87058.22;;;5.75;68.31
41312;BME280;27061;41.648;24.568;2022-11-13T05:43:02;87072.19;;;5.85;68.98
41312;BME280;27061;41.648;24.568;2022-11-13T05:45:48;87069.50;;;5.87;68.41
41312;BME280;27061;41.648;24.568;2022-11-13T05:48:34;87068.59;;;5.79;68.57
41312;BME280;27061;41.648;24.568;2022-11-13T05:51:22;87078.81;;;5.74;69.30
41312;BME280;27061;41.648;24.568;2022-11-13T05:54:08;87071.81;;;5.69;68.99
41312;BME280;27061;41.648;24.568;2022-11-13T05:56:54;87038.22;;;5.43;69.67
41312;BME280;27061;41.648;24.568;2022-11-13T05:59:40;87059.00;;;5.50;70.33
41312;BME280;27061;41.648;24.568;2022-11-13T06:02:25;87053.53;;;5.52;69.81
41312;BME280;27061;41.648;24.568;2022-11-13T06:05:11;87064.13;;;5.64;70.43
41312;BME280;27061;41.648;24.568;2022-11-13T06:07:56;87072.53;;;5.70;70.60
41312;BME280;27061;41.648;24.568;2022-11-13T06:10:42;87052.94;;;5.56;70.82
41312;BME280;27061;41.648;24.568;2022-11-13T06:13:28;87024.56;;;5.45;70.72
41312;BME280;27061;41.648;24.568;2022-11-13T06:16:18;86991.13;;;5.25;70.80
41312;BME280;27061;41.648;24.568;2022-11-13T06:19:06;87071.94;;;5.75;70.70
41312;BME280;27061;41.648;24.568;2022-11-13T06:21:52;87061.59;;;5.72;71.00
41312;BME280;27061;41.648;24.568;2022-11-13T06:24:38;87074.19;;;5.83;71.24
41312;BME280;27061;41.648;24.568;2022-11-13T06:27:23;87080.47;;;5.87;71.83
41312;BME280;27061;41.648;24.568;2022-11-13T06:30:09;87075.72;;;5.88;72.46
41312;BME280;27061;41.648;24.568;2022-11-13T06:32:55;87076.50;;;5.93;73.01
41312;BME280;27061;41.648;24.568;2022-11-13T06:35:40;87056.91;;;5.78;73.00
41312;BME280;27061;41.648;24.568;2022-11-13T06:38:28;87078.75;;;6.00;73.61
41312;BME280;27061;41.648;24.568;2022-11-13T06:41:16;87083.59;;;6.02;73.86
41312;BME280;27061;41.648;24.568;2022-11-13T06:44:01;87080.09;;;5.99;74.89
41312;BME280;27061;41.648;24.568;2022-11-13T06:46:47;87089.84;;;6.06;75.21
41312;BME280;27061;41.648;24.568;2022-11-13T06:49:33;87083.84;;;6.14;75.76
41312;BME280;27061;41.648;24.568;2022-11-13T06:52:18;87065.97;;;6.13;75.82
41312;BME280;27061;41.648;24.568;2022-11-13T06:55:04;87085.59;;;6.31;76.37
41312;BME280;27061;41.648;24.568;2022-11-13T06:57:50;87087.78;;;6.37;76.94
41312;BME280;27061;41.648;24.568;2022-11-13T07:00:35;87056.53;;;6.22;77.81
41312;BME280;27061;41.648;24.568;2022-11-13T07:03:25;87085.44;;;6.57;78.86
41312;BME280;27061;41.648;24.568;2022-11-13T07:06:17;87066.81;;;6.53;78.94
41312;BME280;27061;41.648;24.568;2022-11-13T07:09:03;87047.41;;;6.47;78.21
41312;BME280;27061;41.648;24.568;2022-11-13T07:11:48;87068.47;;;6.67;79.54
41312;BME280;27061;41.648;24.568;2022-11-13T07:14:33;87075.16;;;6.93;79.04
41312;BME280;27061;41.648;24.568;2022-11-13T07:17:19;87042.41;;;6.72;78.92
41312;BME280;27061;41.648;24.568;2022-11-13T07:20:05;87057.38;;;6.98;79.85
41312;BME280;27061;41.648;24.568;2022-11-13T07:22:54;87041.34;;;6.89;79.98
41312;BME280;27061;41.648;24.568;2022-11-13T07:25:40;87051.31;;;7.06;80.54
41312;BME280;27061;41.648;24.568;2022-11-13T07:28:25;87044.69;;;7.21;80.80
41312;BME280;27061;41.648;24.568;2022-11-13T07:31:12;87071.13;;;7.37;79.54
41312;BME280;27061;41.648;24.568;2022-11-13T07:33:57;87032.25;;;7.18;80.26
41312;BME280;27061;41.648;24.568;2022-11-13T07:36:43;87072.97;;;7.62;79.83
41312;BME280;27061;41.648;24.568;2022-11-13T07:39:28;87070.41;;;7.76;79.46
41312;BME280;27061;41.648;24.568;2022-11-13T07:42:14;87054.53;;;7.72;80.53
41312;BME280;27061;41.648;24.568;2022-11-13T07:44:59;87056.03;;;7.82;80.53
41312;BME280;27061;41.648;24.568;2022-11-13T07:47:45;87072.31;;;8.09;79.88
41312;BME280;27061;41.648;24.568;2022-11-13T07:50:32;87076.00;;;8.24;80.42
41312;BME280;27061;41.648;24.568;2022-11-13T07:53:19;87048.16;;;8.08;80.48
41312;BME280;27061;41.648;24.568;2022-11-13T07:56:05;87044.28;;;8.25;80.42
41312;BME280;27061;41.648;24.568;2022-11-13T07:58:51;87041.06;;;8.41;81.01
41312;BME280;27061;41.648;24.568;2022-11-13T08:01:36;87042.66;;;8.56;81.31
41312;BME280;27061;41.648;24.568;2022-11-13T08:04:22;87047.69;;;8.72;81.56
41312;BME280;27061;41.648;24.568;2022-11-13T08:07:10;87044.41;;;8.86;80.22
41312;BME280;27061;41.648;24.568;2022-11-13T08:09:57;87066.88;;;9.18;79.50
41312;BME280;27061;41.648;24.568;2022-11-13T08:12:44;87071.22;;;9.35;79.46
41312;BME280;27061;41.648;24.568;2022-11-13T08:15:30;87072.69;;;9.44;77.83
41312;BME280;27061;41.648;24.568;2022-11-13T08:18:16;87079.78;;;9.60;77.16
41312;BME280;27061;41.648;24.568;2022-11-13T08:21:04;87063.88;;;9.60;77.25
41312;BME280;27061;41.648;24.568;2022-11-13T08:23:58;87066.81;;;9.78;77.16
41312;BME280;27061;41.648;24.568;2022-11-13T08:26:44;87070.34;;;9.89;76.27
41312;BME280;27061;41.648;24.568;2022-11-13T08:29:30;87032.91;;;9.78;74.93
41312;BME280;27061;41.648;24.568;2022-11-13T08:32:17;87059.47;;;10.11;74.27
41312;BME280;27061;41.648;24.568;2022-11-13T08:35:03;87067.88;;;10.19;73.08
41312;BME280;27061;41.648;24.568;2022-11-13T08:37:49;87035.19;;;10.00;72.50
41312;BME280;27061;41.648;24.568;2022-11-13T08:40:34;87062.44;;;10.32;71.99
41312;BME280;27061;41.648;24.568;2022-11-13T08:43:20;87049.94;;;10.26;71.68
41312;BME280;27061;41.648;24.568;2022-11-13T08:46:06;87043.06;;;10.32;71.55
41312;BME280;27061;41.648;24.568;2022-11-13T08:48:51;87053.50;;;10.41;71.91
41312;BME280;27061;41.648;24.568;2022-11-13T08:51:37;87062.63;;;10.60;72.23
41312;BME280;27061;41.648;24.568;2022-11-13T08:54:23;87070.25;;;10.61;72.71
41312;BME280;27061;41.648;24.568;2022-11-13T08:57:08;87041.81;;;10.53;72.36
41312;BME280;27061;41.648;24.568;2022-11-13T08:59:53;87027.94;;;10.51;72.70
41312;BME280;27061;41.648;24.568;2022-11-13T09:02:39;87043.94;;;10.62;72.99
41312;BME280;27061;41.648;24.568;2022-11-13T09:05:25;87033.63;;;10.69;73.09
41312;BME280;27061;41.648;24.568;2022-11-13T09:08:11;87029.44;;;10.70;72.90
41312;BME280;27061;41.648;24.568;2022-11-13T09:11:01;87064.25;;;11.02;72.28
41312;BME280;27061;41.648;24.568;2022-11-13T09:13:46;87054.59;;;11.09;72.26
41312;BME280;27061;41.648;24.568;2022-11-13T09:16:37;87072.69;;;11.28;71.93
41312;BME280;27061;41.648;24.568;2022-11-13T09:19:23;87069.97;;;11.40;71.77
41312;BME280;27061;41.648;24.568;2022-11-13T09:22:09;87058.88;;;11.48;71.51
41312;BME280;27061;41.648;24.568;2022-11-13T09:24:55;87059.59;;;11.55;70.63
41312;BME280;27061;41.648;24.568;2022-11-13T09:27:40;87046.47;;;11.71;69.73
41312;BME280;27061;41.648;24.568;2022-11-13T09:30:28;87045.78;;;11.73;68.00
41312;BME280;27061;41.648;24.568;2022-11-13T09:33:14;87055.56;;;11.96;66.51
41312;BME280;27061;41.648;24.568;2022-11-13T09:35:59;87053.47;;;11.99;67.25
41312;BME280;27061;41.648;24.568;2022-11-13T09:38:45;87055.56;;;12.02;68.54
41312;BME280;27061;41.648;24.568;2022-11-13T09:41:35;87003.53;;;11.85;68.30
41312;BME280;27061;41.648;24.568;2022-11-13T09:44:35;87025.03;;;12.13;68.78
41312;BME280;27061;41.648;24.568;2022-11-13T09:47:27;87038.25;;;12.34;68.01
41312;BME280;27061;41.648;24.568;2022-11-13T09:50:24;87023.66;;;12.36;69.81
41312;BME280;27061;41.648;24.568;2022-11-13T09:53:12;87003.53;;;12.29;70.20
41312;BME280;27061;41.648;24.568;2022-11-13T09:56:23;87036.84;;;12.70;70.10
41312;BME280;27061;41.648;24.568;2022-11-13T10:08:00;87037.47;;;13.03;67.36
41312;BME280;27061;41.648;24.568;2022-11-13T10:14:03;87020.75;;;13.21;68.90
41312;BME280;27061;41.648;24.568;2022-11-13T10:20:31;87008.16;;;13.40;65.51
41312;BME280;27061;41.648;24.568;2022-11-13T10:23:25;87014.38;;;13.49;65.78
41312;BME280;27061;41.648;24.568;2022-11-13T10:26:18;87011.59;;;13.51;66.49
41312;BME280;27061;41.648;24.568;2022-11-13T10:29:13;87019.84;;;13.67;65.35
41312;BME280;27061;41.648;24.568;2022-11-13T10:32:20;86983.75;;;13.55;64.71
41312;BME280;27061;41.648;24.568;2022-11-13T10:38:02;87005.78;;;13.96;63.93
41312;BME280;27061;41.648;24.568;2022-11-13T10:41:04;86979.47;;;13.74;63.40
41312;BME280;27061;41.648;24.568;2022-11-13T10:43:58;87011.28;;;14.06;63.79
41312;BME280;27061;41.648;24.568;2022-11-13T10:46:43;87007.03;;;14.17;64.35
41312;BME280;27061;41.648;24.568;2022-11-13T10:49:29;86987.63;;;14.05;63.75
41312;BME280;27061;41.648;24.568;2022-11-13T10:52:23;87004.19;;;14.27;62.86
41312;BME280;27061;41.648;24.568;2022-11-13T10:55:15;87003.41;;;14.37;62.80
41312;BME280;27061;41.648;24.568;2022-11-13T10:58:10;86998.50;;;14.43;61.56
41312;BME280;27061;41.648;24.568;2022-11-13T11:00:56;86980.44;;;14.34;60.94
41312;BME280;27061;41.648;24.568;2022-11-13T11:03:48;86991.44;;;14.54;59.98
41312;BME280;27061;41.648;24.568;2022-11-13T11:06:37;86904.19;;;13.95;60.70
41312;BME280;27061;41.648;24.568;2022-11-13T11:09:44;86985.78;;;14.62;61.22
41312;BME280;27061;41.648;24.568;2022-11-13T11:12:33;86959.44;;;14.49;60.56
41312;BME280;27061;41.648;24.568;2022-11-13T11:15:26;86987.06;;;14.76;60.18
41312;BME280;27061;41.648;24.568;2022-11-13T11:18:23;86982.81;;;14.85;58.59
41312;BME280;27061;41.648;24.568;2022-11-13T11:21:31;86938.47;;;14.56;58.01
41312;BME280;27061;41.648;24.568;2022-11-13T11:24:27;86968.97;;;14.75;59.29
41312;BME280;27061;41.648;24.568;2022-11-13T11:27:18;86952.31;;;14.67;60.29
41312;BME280;27061;41.648;24.568;2022-11-13T11:30:22;86983.38;;;14.97;60.79
41312;BME280;27061;41.648;24.568;2022-11-13T11:33:09;86987.53;;;15.00;59.77
41312;BME280;27061;41.648;24.568;2022-11-13T11:36:07;86972.13;;;15.06;59.40
41312;BME280;27061;41.648;24.568;2022-11-13T11:40:13;86982.56;;;15.09;59.08
41312;BME280;27061;41.648;24.568;2022-11-13T11:43:05;86977.66;;;15.14;57.72
41312;BME280;27061;41.648;24.568;2022-11-13T11:45:52;86968.69;;;15.03;50.51
41312;BME280;27061;41.648;24.568;2022-11-13T11:48:38;86971.41;;;15.09;49.19
41312;BME280;27061;41.648;24.568;2022-11-13T11:51:33;86976.94;;;15.13;50.09
41312;BME280;27061;41.648;24.568;2022-11-13T11:54:44;86965.13;;;15.09;50.61
41312;BME280;27061;41.648;24.568;2022-11-13T12:00:48;86968.75;;;14.97;51.61
41312;BME280;27061;41.648;24.568;2022-11-13T12:09:42;86936.91;;;14.76;50.96
41312;BME280;27061;41.648;24.568;2022-11-13T12:12:50;86949.34;;;14.85;51.84
41312;BME280;27061;41.648;24.568;2022-11-13T12:15:59;86966.06;;;14.85;54.57
41312;BME280;27061;41.648;24.568;2022-11-13T12:19:05;86957.06;;;14.82;54.57
41312;BME280;27061;41.648;24.568;2022-11-13T12:22:03;86960.56;;;14.81;51.53
41312;BME280;27061;41.648;24.568;2022-11-13T12:28:01;86950.81;;;14.78;50.97
41312;BME280;27061;41.648;24.568;2022-11-13T12:36:48;86932.06;;;14.72;52.31
41312;BME280;27061;41.648;24.568;2022-11-13T12:40:13;86946.63;;;14.81;52.60
41312;BME280;27061;41.648;24.568;2022-11-13T12:45:53;86940.97;;;14.85;53.43
41312;BME280;27061;41.648;24.568;2022-11-13T12:48:45;86942.34;;;14.90;55.02
41312;BME280;27061;41.648;24.568;2022-11-13T12:51:38;86926.56;;;14.64;55.93
41312;BME280;27061;41.648;24.568;2022-11-13T12:54:35;86918.91;;;14.62;56.06
41312;BME280;27061;41.648;24.568;2022-11-13T12:57:23;86950.94;;;14.63;56.67
41312;BME280;27061;41.648;24.568;2022-11-13T13:00:28;86936.31;;;14.65;56.94
41312;BME280;27061;41.648;24.568;2022-11-13T13:09:40;86945.31;;;14.72;56.05
41312;BME280;27061;41.648;24.568;2022-11-13T13:15:39;86954.38;;;14.72;55.63
41312;BME280;27061;41.648;24.568;2022-11-13T13:18:31;86960.66;;;14.71;56.34
41312;BME280;27061;41.648;24.568;2022-11-13T13:21:19;86894.09;;;14.32;55.40
41312;BME280;27061;41.648;24.568;2022-11-13T13:24:28;86940.59;;;14.54;55.07
41312;BME280;27061;41.648;24.568;2022-11-13T13:27:25;86938.63;;;14.36;55.08
41312;BME280;27061;41.648;24.568;2022-11-13T13:30:21;86939.34;;;14.33;55.54
41312;BME280;27061;41.648;24.568;2022-11-13T13:36:39;86940.13;;;14.23;55.39
41312;BME280;27061;41.648;24.568;2022-11-13T13:46:13;86948.97;;;13.54;57.11
41312;BME280;27061;41.648;24.568;2022-11-13T13:49:11;86946.91;;;13.52;57.04
41312;BME280;27061;41.648;24.568;2022-11-13T13:51:58;86925.44;;;13.35;57.53
41312;BME280;27061;41.648;24.568;2022-11-13T13:54:44;86942.13;;;13.35;57.46
41312;BME280;27061;41.648;24.568;2022-11-13T13:57:33;86947.00;;;13.30;57.54
41312;BME280;27061;41.648;24.568;2022-11-13T14:00:24;86945.63;;;13.27;57.56
41312;BME280;27061;41.648;24.568;2022-11-13T14:03:28;86947.72;;;13.25;56.87
41312;BME280;27061;41.648;24.568;2022-11-13T14:06:18;86953.34;;;13.12;57.33
41312;BME280;27061;41.648;24.568;2022-11-13T14:09:17;86946.38;;;13.11;57.05
41312;BME280;27061;41.648;24.568;2022-11-13T14:12:17;86949.22;;;12.99;57.52
41312;BME280;27061;41.648;24.568;2022-11-13T14:15:04;86940.94;;;12.81;57.75
41312;BME280;27061;41.648;24.568;2022-11-13T14:17:50;86947.91;;;12.76;57.63
41312;BME280;27061;41.648;24.568;2022-11-13T14:20:41;86925.03;;;12.55;57.97
41312;BME280;27061;41.648;24.568;2022-11-13T14:23:42;86922.97;;;12.50;58.38
41312;BME280;27061;41.648;24.568;2022-11-13T14:26:28;86938.22;;;12.57;57.78
41312;BME280;27061;41.648;24.568;2022-11-13T14:29:20;86943.75;;;12.61;57.43
41312;BME280;27061;41.648;24.568;2022-11-13T14:32:17;86941.72;;;12.49;57.70
41312;BME280;27061;41.648;24.568;2022-11-13T14:35:06;86911.91;;;12.23;57.67
41312;BME280;27061;41.648;24.568;2022-11-13T14:37:54;86940.34;;;12.32;57.73
41312;BME280;27061;41.648;24.568;2022-11-13T14:40:45;86918.88;;;12.10;57.61
41312;BME280;27061;41.648;24.568;2022-11-13T14:43:32;86913.31;;;11.98;57.61
41312;BME280;27061;41.648;24.568;2022-11-13T14:49:28;86911.97;;;11.85;58.10
41312;BME280;27061;41.648;24.568;2022-11-13T14:52:27;86911.97;;;11.85;58.22
41312;BME280;27061;41.648;24.568;2022-11-13T14:55:21;86932.75;;;11.90;57.91
41312;BME280;27061;41.648;24.568;2022-11-13T14:58:11;86935.53;;;11.80;58.15
41312;BME280;27061;41.648;24.568;2022-11-13T15:01:21;86901.53;;;11.49;58.17
41312;BME280;27061;41.648;24.568;2022-11-13T15:04:07;86921.63;;;11.47;58.35
41312;BME280;27061;41.648;24.568;2022-11-13T15:06:58;86889.72;;;11.28;58.48
41312;BME280;27061;41.648;24.568;2022-11-13T15:09:44;86900.09;;;11.15;58.92
41312;BME280;27061;41.648;24.568;2022-11-13T15:12:30;86879.94;;;10.94;59.03
41312;BME280;27061;41.648;24.568;2022-11-13T15:15:17;86927.13;;;11.27;59.00
41312;BME280;27061;41.648;24.568;2022-11-13T15:18:03;86931.25;;;11.14;59.13
41312;BME280;27061;41.648;24.568;2022-11-13T15:20:49;86935.41;;;11.00;59.70
41312;BME280;27061;41.648;24.568;2022-11-13T15:23:35;86912.47;;;10.84;59.79
41312;BME280;27061;41.648;24.568;2022-11-13T15:26:20;86924.97;;;10.93;59.82
41312;BME280;27061;41.648;24.568;2022-11-13T15:29:06;86904.81;;;10.68;60.07
41312;BME280;27061;41.648;24.568;2022-11-13T15:31:52;86879.78;;;10.40;60.19
41312;BME280;27061;41.648;24.568;2022-11-13T15:34:39;86928.38;;;10.73;60.20
41312;BME280;27061;41.648;24.568;2022-11-13T15:37:25;86935.97;;;10.69;60.30
41312;BME280;27061;41.648;24.568;2022-11-13T15:40:11;86933.88;;;10.63;59.90
41312;BME280;27061;41.648;24.568;2022-11-13T15:42:57;86897.13;;;10.46;59.71
41312;BME280;27061;41.648;24.568;2022-11-13T15:45:45;86933.88;;;10.63;60.21
41312;BME280;27061;41.648;24.568;2022-11-13T15:48:31;86899.03;;;10.15;60.29
41312;BME280;27061;41.648;24.568;2022-11-13T15:51:42;86935.09;;;10.32;60.73